Garyp, Netherlands
Current Conditions -  °F | °C
As of 5:25 PM on Thursday 29 Jan 2015 (Local Time) from EHLW Reporting Station
Broken Clouds Broken Clouds  
Wind Chill: 29°   Ceiling: 1800
Heat Index: 36°   Visibility: 6mi
Dew Point: 34°   Wind: 8mph
Humidity: 93%   Direction: 250°WSW
Pressure: 28.79"   Gusts: NA
Location:  53.17°N, 5.97°E
Report Text: EHLW 291625Z AUTO 25007KT 9999 FEW009 BKN018 BKN021 02/01 Q0975 REDZ WHT 24008KT 9999 SCT022 BKN050 TEMPO 27013G30KT 3000 SHRASN SCT006 SCT018CB BKN035
Loading
Personal Weather Stations






























Interactive Weather Map New forecast layout! Learn more

10-Day Weather Forecast

Advertisements
Track Severe Weather on mobile